Crest Park, CA (92326)

9:15 AM PDT on August 27, 2014 (GMT -0700)
Lake Arrowhead | Change Station
CLOSE
Current Station
Personal Weather Station
Location: Twin Peaks, CA
Elevation: 5600 ft
Nearby Weather Stations

Elev 5600 ft 34.24 °N, 117.22 °W | Updated 8 minutes ago

Clear
Clear
69.8 °F
Feels Like 69.8 °F
N
0.0
Wind Variable Wind from ESE
Gusts 5.0 mph

Today
High -- | Low -- °F
--% Chance of Precip.
Yesterday
High -- | Low -- °F
Precip. -- in
6:18 AM 7:21 PM
Waxing Crescent, 4% visible
Pressure 30.37 in
Visibility 10.0 miles
Clouds Clear
Dew Point 47 °F
Humidity 44%
Rainfall 0.00 in
Snow Depth Not available.
UV 4 out of 12
Pollen 7.50 out of 12
Ozone Good
PM2.5 Good
Flu Activity Not available.
METAR KL35 271555Z AUTO 26006KT 10SM CLR 18/07 A3037 RMK AO2

More Conditions Fewer Conditions

Pressure 30.37 in
Visibility 10.0 miles
Clouds Clear
Dew Point 47 °F
Humidity 44%
Rainfall 0.00 in
Snow Depth Not available.
UV 4 out of 12
Pollen 7.50 out of 12
Ozone Good
PM2.5 Good
Flu Activity Not available.
METAR KL35 271555Z AUTO 26006KT 10SM CLR 18/07 A3037 RMK AO2

More Conditions Fewer Conditions

10-Day Weather Forecast

Almanac

Astronomy

Aug. 27, 2014 Rise Set
Actual Time 6:18 AM PDT 7:21 PM PDT
Civil Twilight 5:52 AM PDT 7:47 PM PDT
Nautical Twilight 5:22 AM PDT 8:17 PM PDT
Astronomical Twilight 4:50 AM PDT 8:49 PM PDT
Moon 8:11 AM PDT 8:24 PM PDT
Length of Visible Light 13h 54m
Length of Day
13h 02m
Tomorrow will be 2m 0s shorter.
Waxing Crescent, 4% of the Moon is Illuminated
Today
Waxing Crescent
Sep 2
First Quarter
Sep 8
Full
Sep 15
Last Quarter
Sep 24
New

Today's Extremes

State Highs State Lows

Community

WunderPhotos

Upload Photos

1,747,721 photos uploaded!

Nearby

Air Quality

  Air Quality AQ Index Pollutant
Yesterday Moderate
OZONE
Yesterday Good
PM2.5
Current Good
OZONE
Current Good
PM2.5
Wednesday Moderate
OZONE
Wednesday Good
PM10
Wednesday Good
CO
Wednesday Good
NO2

Snow Depth

Station Depth Elevation
Leavitt Lake 1 in 9400 ft
Leavitt Meadows 1 in 7200 ft
Sonora Pass 0 in 8800 ft
Summit Meadow 0 in 9122 ft
Poison Flat 0 in 7900 ft

Earthquake Activity

City Distance Mag. Time & Date
San Fernando, California 68 miles 2.5 4:57 AM PDT
2014-08-26
Progreso, Mexico 144 miles 2.6 10:55 PM PDT
2014-08-25
San Pedro, California 72 miles 3.2 7:50 PM PDT
2014-08-24
Minimum magnitude displayed is 2.5.

Coastal Water Temperatures

Place Temperature
No Stations Reporting

Nearby Weather Stations